sensor_id;sensor_type;location;lat;lon;timestamp;P1;durP1;ratioP1;P2;durP2;ratioP2
41309;SDS011;27057;51.438;-0.010;2023-12-29T00:00:21;12.00;;;1.73;;
41309;SDS011;27057;51.438;-0.010;2023-12-29T00:02:49;18.95;;;3.13;;
41309;SDS011;27057;51.438;-0.010;2023-12-29T00:05:18;23.83;;;4.65;;
41309;SDS011;27057;51.438;-0.010;2023-12-29T00:07:45;23.73;;;2.45;;
41309;SDS011;27057;51.438;-0.010;2023-12-29T00:10:13;28.63;;;3.13;;
41309;SDS011;27057;51.438;-0.010;2023-12-29T00:12:41;6.63;;;2.38;;
41309;SDS011;27057;51.438;-0.010;2023-12-29T00:15:08;31.95;;;3.20;;
41309;SDS011;27057;51.438;-0.010;2023-12-29T00:17:36;19.83;;;3.92;;
41309;SDS011;27057;51.438;-0.010;2023-12-29T00:20:04;37.10;;;4.00;;
41309;SDS011;27057;51.438;-0.010;2023-12-29T00:22:34;12.75;;;3.22;;
41309;SDS011;27057;51.438;-0.010;2023-12-29T00:25:02;28.52;;;3.55;;
41309;SDS011;27057;51.438;-0.010;2023-12-29T00:27:29;14.32;;;2.65;;
41309;SDS011;27057;51.438;-0.010;2023-12-29T00:29:57;21.08;;;5.28;;
41309;SDS011;27057;51.438;-0.010;2023-12-29T00:32:24;15.25;;;3.63;;
41309;SDS011;27057;51.438;-0.010;2023-12-29T00:34:53;20.83;;;4.25;;
41309;SDS011;27057;51.438;-0.010;2023-12-29T00:37:21;22.40;;;3.70;;
41309;SDS011;27057;51.438;-0.010;2023-12-29T00:39:48;13.10;;;2.90;;
41309;SDS011;27057;51.438;-0.010;2023-12-29T00:42:17;23.08;;;3.35;;
41309;SDS011;27057;51.438;-0.010;2023-12-29T00:44:45;21.02;;;2.95;;
41309;SDS011;27057;51.438;-0.010;2023-12-29T00:47:12;20.77;;;4.35;;
41309;SDS011;27057;51.438;-0.010;2023-12-29T00:49:39;19.50;;;3.90;;
41309;SDS011;27057;51.438;-0.010;2023-12-29T00:52:09;23.48;;;2.70;;
41309;SDS011;27057;51.438;-0.010;2023-12-29T00:54:36;29.40;;;3.85;;
41309;SDS011;27057;51.438;-0.010;2023-12-29T00:57:04;19.58;;;2.78;;
41309;SDS011;27057;51.438;-0.010;2023-12-29T00:59:32;21.15;;;5.00;;
41309;SDS011;27057;51.438;-0.010;2023-12-29T01:01:59;27.10;;;4.07;;
41309;SDS011;27057;51.438;-0.010;2023-12-29T01:04:27;32.75;;;4.97;;
41309;SDS011;27057;51.438;-0.010;2023-12-29T01:06:55;14.68;;;2.25;;
41309;SDS011;27057;51.438;-0.010;2023-12-29T01:09:22;25.60;;;4.15;;
41309;SDS011;27057;51.438;-0.010;2023-12-29T01:11:50;31.52;;;4.57;;
41309;SDS011;27057;51.438;-0.010;2023-12-29T01:14:18;32.10;;;3.53;;
41309;SDS011;27057;51.438;-0.010;2023-12-29T01:16:45;19.73;;;3.28;;
41309;SDS011;27057;51.438;-0.010;2023-12-29T01:19:13;11.48;;;2.22;;
41309;SDS011;27057;51.438;-0.010;2023-12-29T01:21:40;30.88;;;4.82;;
41309;SDS011;27057;51.438;-0.010;2023-12-29T01:24:08;32.08;;;3.92;;
41309;SDS011;27057;51.438;-0.010;2023-12-29T01:26:38;20.35;;;3.08;;
41309;SDS011;27057;51.438;-0.010;2023-12-29T01:29:06;23.83;;;2.92;;
41309;SDS011;27057;51.438;-0.010;2023-12-29T01:31:33;25.98;;;3.08;;
41309;SDS011;27057;51.438;-0.010;2023-12-29T01:34:01;49.63;;;4.78;;
41309;SDS011;27057;51.438;-0.010;2023-12-29T01:36:28;33.30;;;4.57;;
41309;SDS011;27057;51.438;-0.010;2023-12-29T01:38:56;23.75;;;3.13;;
41309;SDS011;27057;51.438;-0.010;2023-12-29T01:41:23;23.65;;;3.90;;
41309;SDS011;27057;51.438;-0.010;2023-12-29T01:46:28;33.08;;;4.82;;
41309;SDS011;27057;51.438;-0.010;2023-12-29T01:48:57;28.02;;;4.38;;
41309;SDS011;27057;51.438;-0.010;2023-12-29T01:51:26;29.70;;;4.25;;
41309;SDS011;27057;51.438;-0.010;2023-12-29T01:53:55;18.40;;;2.90;;
41309;SDS011;27057;51.438;-0.010;2023-12-29T01:56:24;18.08;;;3.15;;
41309;SDS011;27057;51.438;-0.010;2023-12-29T01:58:52;32.38;;;3.47;;
41309;SDS011;27057;51.438;-0.010;2023-12-29T02:01:34;23.23;;;2.63;;
41309;SDS011;27057;51.438;-0.010;2023-12-29T02:04:03;47.75;;;4.35;;
41309;SDS011;27057;51.438;-0.010;2023-12-29T02:06:31;21.45;;;4.05;;
41309;SDS011;27057;51.438;-0.010;2023-12-29T02:09:01;37.90;;;3.80;;
41309;SDS011;27057;51.438;-0.010;2023-12-29T02:11:31;30.40;;;4.50;;
41309;SDS011;27057;51.438;-0.010;2023-12-29T02:13:59;27.73;;;3.50;;
41309;SDS011;27057;51.438;-0.010;2023-12-29T02:16:40;20.98;;;3.60;;
41309;SDS011;27057;51.438;-0.010;2023-12-29T02:19:24;16.77;;;2.45;;
41309;SDS011;27057;51.438;-0.010;2023-12-29T02:22:01;14.52;;;4.10;;
41309;SDS011;27057;51.438;-0.010;2023-12-29T02:24:29;21.70;;;3.53;;
41309;SDS011;27057;51.438;-0.010;2023-12-29T02:26:57;31.75;;;3.55;;
41309;SDS011;27057;51.438;-0.010;2023-12-29T02:29:38;18.73;;;3.20;;
41309;SDS011;27057;51.438;-0.010;2023-12-29T02:32:11;26.23;;;3.35;;
41309;SDS011;27057;51.438;-0.010;2023-12-29T02:34:43;56.83;;;5.75;;
41309;SDS011;27057;51.438;-0.010;2023-12-29T02:37:14;12.60;;;3.22;;
41309;SDS011;27057;51.438;-0.010;2023-12-29T02:39:42;44.95;;;5.40;;
41309;SDS011;27057;51.438;-0.010;2023-12-29T02:42:10;35.40;;;5.72;;
41309;SDS011;27057;51.438;-0.010;2023-12-29T02:44:37;33.22;;;4.60;;
41309;SDS011;27057;51.438;-0.010;2023-12-29T02:47:05;12.10;;;2.25;;
41309;SDS011;27057;51.438;-0.010;2023-12-29T02:49:32;16.52;;;2.70;;
41309;SDS011;27057;51.438;-0.010;2023-12-29T02:52:00;37.63;;;4.60;;
41309;SDS011;27057;51.438;-0.010;2023-12-29T02:54:27;16.85;;;2.40;;
41309;SDS011;27057;51.438;-0.010;2023-12-29T02:56:55;27.95;;;4.70;;
41309;SDS011;27057;51.438;-0.010;2023-12-29T02:59:23;35.33;;;3.88;;
41309;SDS011;27057;51.438;-0.010;2023-12-29T03:01:50;25.77;;;4.75;;
41309;SDS011;27057;51.438;-0.010;2023-12-29T03:04:18;35.22;;;3.75;;
41309;SDS011;27057;51.438;-0.010;2023-12-29T03:06:46;35.65;;;3.50;;
41309;SDS011;27057;51.438;-0.010;2023-12-29T03:09:13;30.08;;;4.25;;
41309;SDS011;27057;51.438;-0.010;2023-12-29T03:11:41;28.55;;;3.65;;
41309;SDS011;27057;51.438;-0.010;2023-12-29T03:14:08;25.95;;;4.90;;
41309;SDS011;27057;51.438;-0.010;2023-12-29T03:16:35;33.10;;;4.45;;
41309;SDS011;27057;51.438;-0.010;2023-12-29T03:19:03;43.58;;;5.82;;
41309;SDS011;27057;51.438;-0.010;2023-12-29T03:21:30;25.70;;;3.63;;
41309;SDS011;27057;51.438;-0.010;2023-12-29T03:23:58;17.40;;;2.53;;
41309;SDS011;27057;51.438;-0.010;2023-12-29T03:26:25;32.42;;;5.20;;
41309;SDS011;27057;51.438;-0.010;2023-12-29T03:28:53;25.23;;;5.07;;
41309;SDS011;27057;51.438;-0.010;2023-12-29T03:31:21;45.05;;;3.78;;
41309;SDS011;27057;51.438;-0.010;2023-12-29T03:33:50;16.20;;;1.98;;
41309;SDS011;27057;51.438;-0.010;2023-12-29T03:36:18;22.13;;;5.80;;
41309;SDS011;27057;51.438;-0.010;2023-12-29T03:38:45;39.60;;;3.65;;
41309;SDS011;27057;51.438;-0.010;2023-12-29T03:41:13;33.17;;;3.53;;
41309;SDS011;27057;51.438;-0.010;2023-12-29T03:43:41;18.80;;;2.15;;
41309;SDS011;27057;51.438;-0.010;2023-12-29T03:46:18;31.92;;;3.85;;
41309;SDS011;27057;51.438;-0.010;2023-12-29T03:48:46;22.23;;;3.97;;
41309;SDS011;27057;51.438;-0.010;2023-12-29T03:51:14;35.03;;;4.15;;
41309;SDS011;27057;51.438;-0.010;2023-12-29T03:53:43;37.78;;;5.32;;
41309;SDS011;27057;51.438;-0.010;2023-12-29T03:56:13;17.65;;;3.30;;
41309;SDS011;27057;51.438;-0.010;2023-12-29T03:58:45;29.58;;;5.07;;
41309;SDS011;27057;51.438;-0.010;2023-12-29T04:01:14;34.05;;;5.25;;
41309;SDS011;27057;51.438;-0.010;2023-12-29T04:03:43;34.42;;;5.15;;
41309;SDS011;27057;51.438;-0.010;2023-12-29T04:06:12;15.27;;;2.47;;
41309;SDS011;27057;51.438;-0.010;2023-12-29T04:08:39;38.83;;;5.50;;
41309;SDS011;27057;51.438;-0.010;2023-12-29T04:11:07;23.33;;;3.13;;
41309;SDS011;27057;51.438;-0.010;2023-12-29T04:13:34;23.60;;;3.25;;
41309;SDS011;27057;51.438;-0.010;2023-12-29T04:16:02;30.73;;;4.78;;
41309;SDS011;27057;51.438;-0.010;2023-12-29T04:18:29;42.55;;;4.32;;
41309;SDS011;27057;51.438;-0.010;2023-12-29T04:20:57;14.32;;;2.55;;
41309;SDS011;27057;51.438;-0.010;2023-12-29T04:23:24;38.78;;;4.82;;
41309;SDS011;27057;51.438;-0.010;2023-12-29T04:25:52;19.85;;;3.30;;
41309;SDS011;27057;51.438;-0.010;2023-12-29T04:28:19;31.13;;;4.55;;
41309;SDS011;27057;51.438;-0.010;2023-12-29T04:30:47;29.92;;;3.58;;
41309;SDS011;27057;51.438;-0.010;2023-12-29T04:33:14;20.23;;;3.33;;
41309;SDS011;27057;51.438;-0.010;2023-12-29T04:35:42;22.10;;;3.72;;
41309;SDS011;27057;51.438;-0.010;2023-12-29T04:38:09;21.15;;;3.65;;
41309;SDS011;27057;51.438;-0.010;2023-12-29T04:40:37;15.00;;;3.15;;
41309;SDS011;27057;51.438;-0.010;2023-12-29T04:43:05;33.60;;;3.97;;
41309;SDS011;27057;51.438;-0.010;2023-12-29T04:45:32;31.83;;;4.38;;
41309;SDS011;27057;51.438;-0.010;2023-12-29T04:47:59;26.60;;;3.72;;
41309;SDS011;27057;51.438;-0.010;2023-12-29T04:50:27;11.00;;;3.20;;
41309;SDS011;27057;51.438;-0.010;2023-12-29T04:52:55;21.08;;;3.45;;
41309;SDS011;27057;51.438;-0.010;2023-12-29T04:55:22;9.32;;;2.80;;
41309;SDS011;27057;51.438;-0.010;2023-12-29T04:57:49;17.58;;;2.42;;
41309;SDS011;27057;51.438;-0.010;2023-12-29T05:00:17;32.38;;;5.15;;
41309;SDS011;27057;51.438;-0.010;2023-12-29T05:02:44;10.57;;;3.28;;
41309;SDS011;27057;51.438;-0.010;2023-12-29T05:05:12;12.82;;;2.45;;
41309;SDS011;27057;51.438;-0.010;2023-12-29T05:07:40;28.75;;;3.90;;
41309;SDS011;27057;51.438;-0.010;2023-12-29T05:10:08;22.75;;;2.20;;
41309;SDS011;27057;51.438;-0.010;2023-12-29T05:12:35;22.65;;;3.30;;
41309;SDS011;27057;51.438;-0.010;2023-12-29T05:15:03;26.30;;;3.55;;
41309;SDS011;27057;51.438;-0.010;2023-12-29T05:17:31;26.63;;;3.45;;
41309;SDS011;27057;51.438;-0.010;2023-12-29T05:19:59;20.45;;;4.55;;
41309;SDS011;27057;51.438;-0.010;2023-12-29T05:22:27;39.25;;;5.15;;
41309;SDS011;27057;51.438;-0.010;2023-12-29T05:24:54;21.83;;;2.92;;
41309;SDS011;27057;51.438;-0.010;2023-12-29T05:27:26;21.38;;;3.38;;
41309;SDS011;27057;51.438;-0.010;2023-12-29T05:29:54;18.83;;;3.35;;
41309;SDS011;27057;51.438;-0.010;2023-12-29T05:32:21;32.30;;;4.65;;
41309;SDS011;27057;51.438;-0.010;2023-12-29T05:34:49;36.10;;;4.20;;
41309;SDS011;27057;51.438;-0.010;2023-12-29T05:37:17;41.65;;;3.65;;
41309;SDS011;27057;51.438;-0.010;2023-12-29T05:39:45;38.10;;;4.97;;
41309;SDS011;27057;51.438;-0.010;2023-12-29T05:42:13;49.67;;;6.03;;
41309;SDS011;27057;51.438;-0.010;2023-12-29T05:44:40;28.55;;;4.25;;
41309;SDS011;27057;51.438;-0.010;2023-12-29T05:47:08;41.05;;;4.72;;
41309;SDS011;27057;51.438;-0.010;2023-12-29T05:49:36;30.77;;;4.18;;
41309;SDS011;27057;51.438;-0.010;2023-12-29T05:52:06;52.67;;;4.88;;
41309;SDS011;27057;51.438;-0.010;2023-12-29T05:54:34;43.50;;;4.95;;
41309;SDS011;27057;51.438;-0.010;2023-12-29T05:57:01;36.70;;;4.43;;
41309;SDS011;27057;51.438;-0.010;2023-12-29T05:59:29;23.67;;;3.47;;
41309;SDS011;27057;51.438;-0.010;2023-12-29T06:01:56;27.80;;;4.10;;
41309;SDS011;27057;51.438;-0.010;2023-12-29T06:04:24;18.52;;;2.35;;
41309;SDS011;27057;51.438;-0.010;2023-12-29T06:06:51;22.80;;;3.20;;
41309;SDS011;27057;51.438;-0.010;2023-12-29T06:09:19;15.63;;;3.22;;
41309;SDS011;27057;51.438;-0.010;2023-12-29T06:11:46;24.23;;;3.25;;
41309;SDS011;27057;51.438;-0.010;2023-12-29T06:14:14;30.13;;;5.35;;
41309;SDS011;27057;51.438;-0.010;2023-12-29T06:16:41;17.67;;;4.15;;
41309;SDS011;27057;51.438;-0.010;2023-12-29T06:19:09;12.90;;;2.55;;
41309;SDS011;27057;51.438;-0.010;2023-12-29T06:21:43;21.60;;;2.47;;
41309;SDS011;27057;51.438;-0.010;2023-12-29T06:24:10;23.88;;;2.58;;
41309;SDS011;27057;51.438;-0.010;2023-12-29T06:26:38;12.18;;;1.85;;
41309;SDS011;27057;51.438;-0.010;2023-12-29T06:29:10;10.63;;;2.95;;
41309;SDS011;27057;51.438;-0.010;2023-12-29T06:31:41;18.15;;;2.88;;
41309;SDS011;27057;51.438;-0.010;2023-12-29T06:34:09;23.85;;;2.78;;
41309;SDS011;27057;51.438;-0.010;2023-12-29T06:36:37;12.30;;;2.25;;
41309;SDS011;27057;51.438;-0.010;2023-12-29T06:39:04;5.38;;;1.10;;
41309;SDS011;27057;51.438;-0.010;2023-12-29T06:41:32;18.63;;;2.45;;
41309;SDS011;27057;51.438;-0.010;2023-12-29T06:43:59;3.08;;;1.17;;
41309;SDS011;27057;51.438;-0.010;2023-12-29T06:46:27;18.90;;;2.42;;
41309;SDS011;27057;51.438;-0.010;2023-12-29T06:48:54;9.40;;;1.27;;
41309;SDS011;27057;51.438;-0.010;2023-12-29T06:51:22;5.13;;;2.05;;
41309;SDS011;27057;51.438;-0.010;2023-12-29T06:53:50;6.75;;;1.27;;
41309;SDS011;27057;51.438;-0.010;2023-12-29T06:56:18;8.27;;;1.85;;
41309;SDS011;27057;51.438;-0.010;2023-12-29T06:58:45;23.33;;;2.60;;
41309;SDS011;27057;51.438;-0.010;2023-12-29T07:01:13;14.60;;;1.42;;
41309;SDS011;27057;51.438;-0.010;2023-12-29T07:03:43;16.02;;;2.28;;
41309;SDS011;27057;51.438;-0.010;2023-12-29T07:06:11;18.45;;;2.08;;
41309;SDS011;27057;51.438;-0.010;2023-12-29T07:08:38;13.45;;;3.22;;
41309;SDS011;27057;51.438;-0.010;2023-12-29T07:11:09;24.52;;;2.22;;
41309;SDS011;27057;51.438;-0.010;2023-12-29T07:13:38;20.30;;;3.33;;
41309;SDS011;27057;51.438;-0.010;2023-12-29T07:16:06;5.38;;;1.40;;
41309;SDS011;27057;51.438;-0.010;2023-12-29T07:18:33;13.52;;;2.47;;
41309;SDS011;27057;51.438;-0.010;2023-12-29T07:21:01;20.30;;;2.30;;
41309;SDS011;27057;51.438;-0.010;2023-12-29T07:23:28;11.30;;;1.60;;
41309;SDS011;27057;51.438;-0.010;2023-12-29T07:25:56;23.25;;;2.60;;
41309;SDS011;27057;51.438;-0.010;2023-12-29T07:28:23;20.80;;;2.85;;
41309;SDS011;27057;51.438;-0.010;2023-12-29T07:30:50;12.43;;;2.25;;
41309;SDS011;27057;51.438;-0.010;2023-12-29T07:33:18;22.02;;;3.08;;
41309;SDS011;27057;51.438;-0.010;2023-12-29T07:35:45;15.50;;;1.50;;
41309;SDS011;27057;51.438;-0.010;2023-12-29T07:38:13;18.30;;;2.55;;
41309;SDS011;27057;51.438;-0.010;2023-12-29T07:40:40;14.25;;;2.42;;
41309;SDS011;27057;51.438;-0.010;2023-12-29T07:43:08;5.53;;;1.38;;
41309;SDS011;27057;51.438;-0.010;2023-12-29T07:45:35;18.67;;;2.42;;
41309;SDS011;27057;51.438;-0.010;2023-12-29T07:48:04;6.20;;;1.40;;
41309;SDS011;27057;51.438;-0.010;2023-12-29T07:50:36;8.68;;;1.73;;
41309;SDS011;27057;51.438;-0.010;2023-12-29T07:53:04;22.20;;;3.88;;
41309;SDS011;27057;51.438;-0.010;2023-12-29T07:55:33;10.38;;;1.70;;
41309;SDS011;27057;51.438;-0.010;2023-12-29T07:58:05;11.32;;;1.48;;
41309;SDS011;27057;51.438;-0.010;2023-12-29T08:00:33;10.23;;;1.90;;
41309;SDS011;27057;51.438;-0.010;2023-12-29T08:03:01;8.35;;;1.70;;
41309;SDS011;27057;51.438;-0.010;2023-12-29T08:05:29;14.60;;;1.95;;
41309;SDS011;27057;51.438;-0.010;2023-12-29T08:07:57;15.68;;;2.35;;
41309;SDS011;27057;51.438;-0.010;2023-12-29T08:10:25;5.35;;;1.42;;
41309;SDS011;27057;51.438;-0.010;2023-12-29T08:12:52;24.33;;;2.28;;
41309;SDS011;27057;51.438;-0.010;2023-12-29T08:15:21;9.98;;;1.42;;
41309;SDS011;27057;51.438;-0.010;2023-12-29T08:17:48;13.48;;;1.90;;
41309;SDS011;27057;51.438;-0.010;2023-12-29T08:20:16;7.78;;;1.00;;
41309;SDS011;27057;51.438;-0.010;2023-12-29T08:22:43;14.07;;;1.30;;
41309;SDS011;27057;51.438;-0.010;2023-12-29T08:25:11;5.35;;;1.58;;
41309;SDS011;27057;51.438;-0.010;2023-12-29T08:27:38;9.30;;;1.48;;
41309;SDS011;27057;51.438;-0.010;2023-12-29T08:30:06;20.33;;;2.25;;
41309;SDS011;27057;51.438;-0.010;2023-12-29T08:32:34;1.90;;;0.68;;
41309;SDS011;27057;51.438;-0.010;2023-12-29T08:35:02;11.88;;;1.50;;
41309;SDS011;27057;51.438;-0.010;2023-12-29T08:37:30;4.28;;;1.08;;
41309;SDS011;27057;51.438;-0.010;2023-12-29T08:39:59;7.40;;;1.98;;
41309;SDS011;27057;51.438;-0.010;2023-12-29T08:42:28;9.63;;;1.23;;
41309;SDS011;27057;51.438;-0.010;2023-12-29T08:44:57;6.70;;;1.95;;
41309;SDS011;27057;51.438;-0.010;2023-12-29T08:47:25;4.35;;;1.27;;
41309;SDS011;27057;51.438;-0.010;2023-12-29T08:49:53;15.48;;;2.42;;
41309;SDS011;27057;51.438;-0.010;2023-12-29T08:52:21;19.63;;;2.38;;
41309;SDS011;27057;51.438;-0.010;2023-12-29T08:54:48;9.45;;;2.35;;
41309;SDS011;27057;51.438;-0.010;2023-12-29T08:57:16;5.13;;;0.82;;
41309;SDS011;27057;51.438;-0.010;2023-12-29T08:59:43;17.92;;;1.77;;
41309;SDS011;27057;51.438;-0.010;2023-12-29T09:02:11;9.32;;;1.60;;
41309;SDS011;27057;51.438;-0.010;2023-12-29T09:04:38;14.70;;;3.17;;
41309;SDS011;27057;51.438;-0.010;2023-12-29T09:07:06;9.05;;;1.17;;
41309;SDS011;27057;51.438;-0.010;2023-12-29T09:09:33;17.10;;;1.95;;
41309;SDS011;27057;51.438;-0.010;2023-12-29T09:12:01;12.63;;;1.70;;
41309;SDS011;27057;51.438;-0.010;2023-12-29T09:14:28;14.32;;;1.73;;
41309;SDS011;27057;51.438;-0.010;2023-12-29T09:16:58;5.20;;;1.48;;
41309;SDS011;27057;51.438;-0.010;2023-12-29T09:19:25;9.70;;;1.60;;
41309;SDS011;27057;51.438;-0.010;2023-12-29T09:22:05;9.02;;;1.45;;
41309;SDS011;27057;51.438;-0.010;2023-12-29T09:24:32;4.97;;;1.50;;
41309;SDS011;27057;51.438;-0.010;2023-12-29T09:27:00;12.45;;;2.33;;
41309;SDS011;27057;51.438;-0.010;2023-12-29T09:29:27;17.52;;;4.05;;
41309;SDS011;27057;51.438;-0.010;2023-12-29T09:31:55;6.72;;;1.23;;
41309;SDS011;27057;51.438;-0.010;2023-12-29T09:34:22;10.65;;;1.33;;
41309;SDS011;27057;51.438;-0.010;2023-12-29T09:36:50;15.80;;;2.03;;
41309;SDS011;27057;51.438;-0.010;2023-12-29T09:39:17;11.50;;;1.70;;
41309;SDS011;27057;51.438;-0.010;2023-12-29T09:41:46;14.27;;;1.55;;
41309;SDS011;27057;51.438;-0.010;2023-12-29T09:44:16;10.13;;;1.25;;
41309;SDS011;27057;51.438;-0.010;2023-12-29T09:46:50;11.43;;;1.60;;
41309;SDS011;27057;51.438;-0.010;2023-12-29T09:49:21;11.95;;;2.88;;
41309;SDS011;27057;51.438;-0.010;2023-12-29T09:51:48;18.90;;;1.70;;
41309;SDS011;27057;51.438;-0.010;2023-12-29T09:54:17;15.52;;;1.90;;
41309;SDS011;27057;51.438;-0.010;2023-12-29T09:56:44;20.58;;;1.92;;
41309;SDS011;27057;51.438;-0.010;2023-12-29T09:59:12;19.15;;;1.23;;
41309;SDS011;27057;51.438;-0.010;2023-12-29T10:01:41;19.50;;;2.33;;
41309;SDS011;27057;51.438;-0.010;2023-12-29T10:04:09;15.02;;;2.63;;
41309;SDS011;27057;51.438;-0.010;2023-12-29T10:06:38;16.45;;;3.63;;
41309;SDS011;27057;51.438;-0.010;2023-12-29T10:09:15;30.27;;;3.33;;
41309;SDS011;27057;51.438;-0.010;2023-12-29T10:11:47;14.65;;;2.28;;
41309;SDS011;27057;51.438;-0.010;2023-12-29T10:14:25;20.55;;;2.15;;
41309;SDS011;27057;51.438;-0.010;2023-12-29T10:17:02;18.42;;;1.70;;
41309;SDS011;27057;51.438;-0.010;2023-12-29T10:19:40;18.48;;;2.53;;
41309;SDS011;27057;51.438;-0.010;2023-12-29T10:22:21;14.75;;;1.90;;
41309;SDS011;27057;51.438;-0.010;2023-12-29T10:24:58;18.98;;;2.88;;
41309;SDS011;27057;51.438;-0.010;2023-12-29T10:27:26;16.23;;;2.30;;
41309;SDS011;27057;51.438;-0.010;2023-12-29T10:29:54;12.15;;;1.70;;
41309;SDS011;27057;51.438;-0.010;2023-12-29T10:32:21;21.83;;;2.10;;
41309;SDS011;27057;51.438;-0.010;2023-12-29T10:34:49;18.77;;;2.72;;
41309;SDS011;27057;51.438;-0.010;2023-12-29T10:37:22;7.65;;;1.70;;
41309;SDS011;27057;51.438;-0.010;2023-12-29T10:39:56;7.75;;;1.45;;
41309;SDS011;27057;51.438;-0.010;2023-12-29T10:42:23;9.50;;;1.38;;
41309;SDS011;27057;51.438;-0.010;2023-12-29T10:45:03;19.15;;;2.03;;
41309;SDS011;27057;51.438;-0.010;2023-12-29T10:47:35;18.50;;;2.55;;
41309;SDS011;27057;51.438;-0.010;2023-12-29T10:50:03;15.63;;;2.45;;
41309;SDS011;27057;51.438;-0.010;2023-12-29T10:52:31;22.02;;;2.40;;
41309;SDS011;27057;51.438;-0.010;2023-12-29T10:55:07;8.30;;;1.77;;
41309;SDS011;27057;51.438;-0.010;2023-12-29T10:57:36;21.88;;;2.10;;
41309;SDS011;27057;51.438;-0.010;2023-12-29T11:00:04;13.35;;;1.95;;
41309;SDS011;27057;51.438;-0.010;2023-12-29T11:02:34;21.02;;;2.20;;
41309;SDS011;27057;51.438;-0.010;2023-12-29T11:05:06;14.32;;;2.80;;
41309;SDS011;27057;51.438;-0.010;2023-12-29T11:07:36;19.67;;;3.55;;
41309;SDS011;27057;51.438;-0.010;2023-12-29T11:10:08;24.85;;;2.78;;
41309;SDS011;27057;51.438;-0.010;2023-12-29T11:12:37;10.93;;;1.45;;
41309;SDS011;27057;51.438;-0.010;2023-12-29T11:15:06;23.85;;;2.45;;
41309;SDS011;27057;51.438;-0.010;2023-12-29T11:17:35;13.30;;;2.05;;
41309;SDS011;27057;51.438;-0.010;2023-12-29T11:20:03;18.92;;;3.13;;
41309;SDS011;27057;51.438;-0.010;2023-12-29T11:22:32;22.13;;;3.22;;
41309;SDS011;27057;51.438;-0.010;2023-12-29T11:25:00;15.95;;;2.88;;
41309;SDS011;27057;51.438;-0.010;2023-12-29T11:27:28;16.52;;;3.45;;
41309;SDS011;27057;51.438;-0.010;2023-12-29T11:29:57;21.05;;;2.65;;
41309;SDS011;27057;51.438;-0.010;2023-12-29T11:32:31;16.40;;;2.13;;
41309;SDS011;27057;51.438;-0.010;2023-12-29T11:35:13;25.00;;;2.17;;
41309;SDS011;27057;51.438;-0.010;2023-12-29T11:40:30;20.40;;;2.65;;
41309;SDS011;27057;51.438;-0.010;2023-12-29T11:43:00;14.55;;;1.83;;
41309;SDS011;27057;51.438;-0.010;2023-12-29T11:45:33;21.35;;;2.58;;
41309;SDS011;27057;51.438;-0.010;2023-12-29T11:48:03;11.20;;;1.70;;
41309;SDS011;27057;51.438;-0.010;2023-12-29T11:52:59;17.95;;;2.25;;
41309;SDS011;27057;51.438;-0.010;2023-12-29T11:55:28;5.93;;;1.45;;
41309;SDS011;27057;51.438;-0.010;2023-12-29T11:57:57;8.05;;;1.50;;
41309;SDS011;27057;51.438;-0.010;2023-12-29T12:00:41;9.90;;;1.48;;
41309;SDS011;27057;51.438;-0.010;2023-12-29T12:03:44;6.72;;;1.55;;
41309;SDS011;27057;51.438;-0.010;2023-12-29T12:06:04;10.55;;;1.30;;
41309;SDS011;27057;51.438;-0.010;2023-12-29T12:13:56;10.70;;;1.45;;
41309;SDS011;27057;51.438;-0.010;2023-12-29T12:19:13;1.35;;;0.55;;
41309;SDS011;27057;51.438;-0.010;2023-12-29T12:21:41;12.73;;;2.60;;
41309;SDS011;27057;51.438;-0.010;2023-12-29T12:24:10;5.82;;;1.20;;
41309;SDS011;27057;51.438;-0.010;2023-12-29T12:26:37;2.65;;;1.02;;
41309;SDS011;27057;51.438;-0.010;2023-12-29T12:29:06;6.38;;;1.13;;
41309;SDS011;27057;51.438;-0.010;2023-12-29T12:31:34;11.70;;;1.60;;
41309;SDS011;27057;51.438;-0.010;2023-12-29T12:34:02;8.52;;;1.75;;
41309;SDS011;27057;51.438;-0.010;2023-12-29T12:36:31;8.60;;;1.48;;
41309;SDS011;27057;51.438;-0.010;2023-12-29T12:38:58;13.98;;;1.88;;
41309;SDS011;27057;51.438;-0.010;2023-12-29T12:41:27;9.63;;;1.77;;
41309;SDS011;27057;51.438;-0.010;2023-12-29T12:46:33;8.20;;;1.52;;
41309;SDS011;27057;51.438;-0.010;2023-12-29T12:49:04;3.53;;;1.10;;
41309;SDS011;27057;51.438;-0.010;2023-12-29T12:51:32;6.07;;;1.20;;
41309;SDS011;27057;51.438;-0.010;2023-12-29T12:54:00;4.22;;;1.20;;
41309;SDS011;27057;51.438;-0.010;2023-12-29T12:56:29;10.77;;;1.70;;
41309;SDS011;27057;51.438;-0.010;2023-12-29T12:58:57;2.40;;;1.05;;
41309;SDS011;27057;51.438;-0.010;2023-12-29T13:01:28;10.70;;;1.27;;
41309;SDS011;27057;51.438;-0.010;2023-12-29T13:03:57;7.13;;;1.08;;
41309;SDS011;27057;51.438;-0.010;2023-12-29T13:06:25;12.88;;;1.25;;
41309;SDS011;27057;51.438;-0.010;2023-12-29T13:08:53;5.40;;;1.05;;
41309;SDS011;27057;51.438;-0.010;2023-12-29T13:11:21;4.65;;;1.40;;
41309;SDS011;27057;51.438;-0.010;2023-12-29T13:13:51;11.02;;;2.50;;
41309;SDS011;27057;51.438;-0.010;2023-12-29T13:16:35;7.47;;;2.33;;
41309;SDS011;27057;51.438;-0.010;2023-12-29T13:19:18;5.97;;;1.50;;
41309;SDS011;27057;51.438;-0.010;2023-12-29T13:21:52;7.78;;;1.17;;
41309;SDS011;27057;51.438;-0.010;2023-12-29T13:24:22;2.30;;;0.80;;
41309;SDS011;27057;51.438;-0.010;2023-12-29T13:26:54;6.18;;;1.90;;
41309;SDS011;27057;51.438;-0.010;2023-12-29T13:29:24;7.88;;;1.80;;
41309;SDS011;27057;51.438;-0.010;2023-12-29T13:31:53;3.42;;;1.35;;
41309;SDS011;27057;51.438;-0.010;2023-12-29T13:34:27;1.42;;;0.80;;
41309;SDS011;27057;51.438;-0.010;2023-12-29T13:37:02;6.50;;;1.30;;
41309;SDS011;27057;51.438;-0.010;2023-12-29T13:39:40;13.32;;;2.00;;
41309;SDS011;27057;51.438;-0.010;2023-12-29T13:42:11;6.85;;;1.30;;
41309;SDS011;27057;51.438;-0.010;2023-12-29T13:44:40;1.77;;;0.60;;
41309;SDS011;27057;51.438;-0.010;2023-12-29T13:47:10;0.82;;;0.70;;
41309;SDS011;27057;51.438;-0.010;2023-12-29T13:49:38;5.70;;;1.17;;
41309;SDS011;27057;51.438;-0.010;2023-12-29T13:52:06;9.10;;;1.48;;
41309;SDS011;27057;51.438;-0.010;2023-12-29T13:54:43;13.43;;;2.20;;
41309;SDS011;27057;51.438;-0.010;2023-12-29T13:57:11;2.85;;;0.95;;
41309;SDS011;27057;51.438;-0.010;2023-12-29T13:59:39;7.32;;;1.05;;
41309;SDS011;27057;51.438;-0.010;2023-12-29T14:02:19;2.28;;;0.80;;
41309;SDS011;27057;51.438;-0.010;2023-12-29T14:04:48;2.42;;;0.82;;
41309;SDS011;27057;51.438;-0.010;2023-12-29T14:07:18;3.97;;;1.02;;
41309;SDS011;27057;51.438;-0.010;2023-12-29T14:09:47;4.70;;;1.30;;
41309;SDS011;27057;51.438;-0.010;2023-12-29T14:12:23;7.72;;;0.98;;
41309;SDS011;27057;51.438;-0.010;2023-12-29T14:14:53;2.42;;;0.73;;
41309;SDS011;27057;51.438;-0.010;2023-12-29T14:17:23;3.10;;;1.00;;
41309;SDS011;27057;51.438;-0.010;2023-12-29T14:19:50;5.10;;;1.20;;
41309;SDS011;27057;51.438;-0.010;2023-12-29T14:22:24;8.60;;;1.83;;
41309;SDS011;27057;51.438;-0.010;2023-12-29T14:25:07;4.47;;;1.00;;
41309;SDS011;27057;51.438;-0.010;2023-12-29T14:27:35;6.38;;;1.73;;
41309;SDS011;27057;51.438;-0.010;2023-12-29T14:30:02;4.80;;;1.27;;
41309;SDS011;27057;51.438;-0.010;2023-12-29T14:32:30;3.05;;;1.05;;
41309;SDS011;27057;51.438;-0.010;2023-12-29T14:34:58;1.63;;;0.75;;
41309;SDS011;27057;51.438;-0.010;2023-12-29T14:37:25;2.75;;;1.08;;
41309;SDS011;27057;51.438;-0.010;2023-12-29T14:39:53;5.82;;;1.40;;
41309;SDS011;27057;51.438;-0.010;2023-12-29T14:42:21;3.72;;;1.17;;
41309;SDS011;27057;51.438;-0.010;2023-12-29T14:44:49;15.48;;;1.55;;
41309;SDS011;27057;51.438;-0.010;2023-12-29T14:47:16;5.80;;;1.33;;
41309;SDS011;27057;51.438;-0.010;2023-12-29T14:49:44;4.50;;;0.90;;
41309;SDS011;27057;51.438;-0.010;2023-12-29T14:52:12;3.17;;;0.75;;
41309;SDS011;27057;51.438;-0.010;2023-12-29T14:54:40;6.93;;;1.30;;